9VS YBWP-YHID
Flight info
| Callsign | 9VS |
|---|---|
| Flight time | N/A |
| Altitude | 2500 |
| Route | WP W292 HID |
| Aircraft | TBM9/L-SDFGRWY/S |
Departure
| Time | 2026-04-24 13:10 |
|---|---|
| Airport | Weipa Airport (YBWP) |
Arrival
| Time | N/A |
|---|---|
| Airport | Horn Island Airport (YHID) |
| Time | Latitude | Longitude | Altitude | Speed | Heading |
|---|---|---|---|---|---|
| 2026-04-24 12:57 | -12.68075 | 141.92465 | 164 ft | 0 kts | 215° |
| 2026-04-24 13:04 | -12.68076 | 141.92453 | 63 ft | 2 kts | 286° |
| 2026-04-24 13:04 | -12.68077 | 141.92465 | 57 ft | 5 kts | 252° |
| 2026-04-24 13:04 | -12.68063 | 141.92490 | 59 ft | 5 kts | 326° |
| 2026-04-24 13:04 | -12.68051 | 141.92478 | 62 ft | 12 kts | 320° |
| 2026-04-24 13:05 | -12.67964 | 141.92451 | 63 ft | 14 kts | 24° |
| 2026-04-24 13:05 | -12.67889 | 141.92462 | 63 ft | 13 kts | 300° |
| 2026-04-24 13:05 | -12.67834 | 141.92375 | 57 ft | 16 kts | 303° |
| 2026-04-24 13:05 | -12.67768 | 141.92272 | 61 ft | 18 kts | 305° |
| 2026-04-24 13:06 | -12.67694 | 141.92159 | 61 ft | 21 kts | 303° |
| 2026-04-24 13:06 | -12.67610 | 141.92030 | 61 ft | 23 kts | 304° |
| 2026-04-24 13:06 | -12.67519 | 141.91892 | 62 ft | 24 kts | 303° |
| 2026-04-24 13:06 | -12.67421 | 141.91743 | 61 ft | 21 kts | 307° |
| 2026-04-24 13:07 | -12.67399 | 141.91739 | 59 ft | 5 kts | 125° |
| 2026-04-24 13:07 | -12.67401 | 141.91741 | 58 ft | 0 kts | 124° |
| 2026-04-24 13:08 | -12.67433 | 141.91791 | 61 ft | 33 kts | 124° |
| 2026-04-24 13:08 | -12.67687 | 141.92166 | 65 ft | 91 kts | 124° |
| 2026-04-24 13:09 | -12.68303 | 141.93707 | 320 ft | 158 kts | 99° |
| 2026-04-24 13:09 | -12.68593 | 141.94889 | 410 ft | 180 kts | 107° |
| 2026-04-24 13:09 | -12.68974 | 141.96183 | 530 ft | 197 kts | 107° |
| 2026-04-24 13:09 | -12.69376 | 141.97559 | 662 ft | 206 kts | 104° |
| 2026-04-24 13:10 | -12.69422 | 141.99031 | 781 ft | 212 kts | 78° |
| 2026-04-24 13:10 | -12.68646 | 142.00294 | 899 ft | 220 kts | 44° |
| 2026-04-24 13:10 | -12.67296 | 142.01065 | 1014 ft | 223 kts | 28° |
| 2026-04-24 13:10 | -12.65873 | 142.01688 | 1146 ft | 224 kts | 28° |
| 2026-04-24 13:11 | -12.64419 | 142.02311 | 1264 ft | 227 kts | 27° |
| 2026-04-24 13:11 | -12.62975 | 142.02941 | 1387 ft | 224 kts | 28° |
| 2026-04-24 13:11 | -12.61540 | 142.03569 | 1516 ft | 225 kts | 28° |
| 2026-04-24 13:11 | -12.60095 | 142.04205 | 1640 ft | 227 kts | 28° |
| 2026-04-24 13:12 | -12.58641 | 142.04851 | 1756 ft | 228 kts | 28° |
| 2026-04-24 13:12 | -12.57165 | 142.05507 | 1883 ft | 232 kts | 28° |
| 2026-04-24 13:12 | -12.55679 | 142.06164 | 2001 ft | 233 kts | 28° |
| 2026-04-24 13:12 | -12.54191 | 142.06840 | 2122 ft | 235 kts | 29° |
| 2026-04-24 13:13 | -12.52721 | 142.07502 | 2241 ft | 214 kts | 29° |
| 2026-04-24 13:13 | -12.51387 | 142.08101 | 2353 ft | 214 kts | 30° |
| 2026-04-24 13:13 | -12.50015 | 142.08721 | 2435 ft | 223 kts | 29° |
| 2026-04-24 13:13 | -12.48566 | 142.09363 | 2440 ft | 231 kts | 28° |
| 2026-04-24 13:14 | -12.47070 | 142.10022 | 2431 ft | 235 kts | 28° |
| 2026-04-24 13:14 | -12.45506 | 142.10558 | 2449 ft | 242 kts | 14° |
| 2026-04-24 13:14 | -12.43797 | 142.10364 | 2438 ft | 257 kts | 343° |
| 2026-04-24 13:14 | -12.42323 | 142.09291 | 2430 ft | 265 kts | 312° |
| 2026-04-24 13:15 | -12.41523 | 142.07601 | 2428 ft | 267 kts | 281° |
| 2026-04-24 13:15 | -12.41611 | 142.05746 | 2429 ft | 260 kts | 248° |
| 2026-04-24 13:15 | -12.42543 | 142.04227 | 2431 ft | 249 kts | 218° |
| 2026-04-24 13:15 | -12.44009 | 142.03447 | 2427 ft | 238 kts | 187° |
| 2026-04-24 13:16 | -12.45595 | 142.03574 | 2432 ft | 227 kts | 155° |
| 2026-04-24 13:16 | -12.46803 | 142.04539 | 2435 ft | 221 kts | 123° |
| 2026-04-24 13:16 | -12.47255 | 142.06018 | 2436 ft | 222 kts | 92° |
| 2026-04-24 13:16 | -12.46801 | 142.07530 | 2436 ft | 230 kts | 61° |
| 2026-04-24 13:17 | -12.45598 | 142.08642 | 2455 ft | 236 kts | 38° |
| 2026-04-24 13:17 | -12.44179 | 142.09504 | 2451 ft | 238 kts | 35° |
| 2026-04-24 13:17 | -12.42722 | 142.10329 | 2450 ft | 239 kts | 35° |
| 2026-04-24 13:17 | -12.41571 | 142.11457 | 2442 ft | 227 kts | 66° |
| 2026-04-24 13:18 | -12.41351 | 142.12980 | 2443 ft | 221 kts | 101° |
| 2026-04-24 13:18 | -12.42063 | 142.14348 | 2439 ft | 223 kts | 133° |
| 2026-04-24 13:18 | -12.43444 | 142.15069 | 2438 ft | 231 kts | 165° |
| 2026-04-24 13:18 | -12.45062 | 142.14889 | 2442 ft | 242 kts | 197° |
| 2026-04-24 13:19 | -12.46422 | 142.13816 | 2440 ft | 255 kts | 227° |
| 2026-04-24 13:19 | -12.47104 | 142.12126 | 2436 ft | 264 kts | 259° |
| 2026-04-24 13:19 | -12.46905 | 142.10262 | 2430 ft | 266 kts | 291° |
| 2026-04-24 13:19 | -12.45859 | 142.08747 | 2434 ft | 260 kts | 322° |
| 2026-04-24 13:20 | -12.44265 | 142.07973 | 2433 ft | 252 kts | 353° |
| 2026-04-24 13:20 | -12.42529 | 142.07856 | 2441 ft | 250 kts | 5° |
| 2026-04-24 13:20 | -12.40789 | 142.07889 | 2447 ft | 250 kts | 7° |
| 2026-04-24 13:20 | -12.39072 | 142.07968 | 2448 ft | 250 kts | 8° |
| 2026-04-24 13:21 | -12.37336 | 142.08064 | 2445 ft | 249 kts | 8° |
| 2026-04-24 13:21 | -12.35600 | 142.08154 | 2445 ft | 249 kts | 8° |
| 2026-04-24 13:21 | -12.33866 | 142.08241 | 2441 ft | 249 kts | 8° |
| 2026-04-24 13:21 | -12.32133 | 142.08326 | 2436 ft | 248 kts | 8° |
| 2026-04-24 13:22 | -12.30992 | 142.08382 | 2442 ft | 247 kts | 7° |
| 2026-04-24 13:22 | -12.29271 | 142.08465 | 2442 ft | 249 kts | 8° |
| 2026-04-24 13:22 | -12.27532 | 142.08546 | 2442 ft | 250 kts | 8° |
| 2026-04-24 13:22 | -12.25851 | 142.08836 | 2438 ft | 241 kts | 27° |
| 2026-04-24 13:23 | -12.24581 | 142.09863 | 2439 ft | 229 kts | 59° |
| 2026-04-24 13:23 | -12.24104 | 142.11364 | 2438 ft | 222 kts | 91° |
| 2026-04-24 13:23 | -12.24537 | 142.12851 | 2445 ft | 223 kts | 122° |
| 2026-04-24 13:23 | -12.25722 | 142.13849 | 2443 ft | 231 kts | 153° |
| 2026-04-24 13:24 | -12.27327 | 142.14049 | 2451 ft | 238 kts | 181° |
| 2026-04-24 13:24 | -12.28966 | 142.13717 | 2451 ft | 241 kts | 188° |
| 2026-04-24 13:24 | -12.30590 | 142.13295 | 2449 ft | 240 kts | 189° |
| 2026-04-24 13:24 | -12.32208 | 142.12876 | 2450 ft | 239 kts | 188° |
| 2026-04-24 13:25 | -12.33815 | 142.12468 | 2452 ft | 237 kts | 188° |
| 2026-04-24 13:25 | -12.35420 | 142.12078 | 2441 ft | 238 kts | 188° |
| 2026-04-24 13:25 | -12.37025 | 142.11698 | 2447 ft | 236 kts | 188° |
| 2026-04-24 13:25 | -12.38626 | 142.11318 | 2447 ft | 236 kts | 188° |
| 2026-04-24 13:26 | -12.40233 | 142.10940 | 2448 ft | 238 kts | 187° |
| 2026-04-24 13:26 | -12.41852 | 142.10555 | 2452 ft | 239 kts | 188° |
| 2026-04-24 13:26 | -12.43475 | 142.10169 | 2447 ft | 239 kts | 187° |
| 2026-04-24 13:26 | -12.45092 | 142.09771 | 2454 ft | 238 kts | 188° |
| 2026-04-24 13:27 | -12.46702 | 142.09374 | 2438 ft | 238 kts | 188° |
| 2026-04-24 13:27 | -12.48315 | 142.08996 | 2438 ft | 237 kts | 187° |
| 2026-04-24 13:27 | -12.49904 | 142.08551 | 2440 ft | 240 kts | 197° |
| 2026-04-24 13:27 | -12.51251 | 142.07534 | 2435 ft | 251 kts | 227° |
| 2026-04-24 13:28 | -12.51952 | 142.05885 | 2434 ft | 259 kts | 258° |
| 2026-04-24 13:28 | -12.51768 | 142.04056 | 2437 ft | 263 kts | 290° |
| 2026-04-24 13:28 | -12.50737 | 142.02544 | 2436 ft | 259 kts | 322° |
| 2026-04-24 13:28 | -12.49236 | 142.01544 | 2442 ft | 256 kts | 335° |
| 2026-04-24 13:29 | -12.47657 | 142.00688 | 2445 ft | 257 kts | 335° |
| 2026-04-24 13:29 | -12.46067 | 141.99854 | 2445 ft | 257 kts | 335° |
| 2026-04-24 13:29 | -12.44474 | 141.99010 | 2440 ft | 257 kts | 336° |
| 2026-04-24 13:29 | -12.42898 | 141.98150 | 2444 ft | 257 kts | 335° |
| 2026-04-24 13:30 | -12.41328 | 141.97278 | 2448 ft | 257 kts | 334° |
| 2026-04-24 13:30 | -12.39740 | 141.96409 | 2446 ft | 259 kts | 335° |
| 2026-04-24 13:30 | -12.38160 | 141.95542 | 2447 ft | 257 kts | 335° |
| 2026-04-24 13:30 | -12.36589 | 141.94669 | 2451 ft | 257 kts | 335° |
| 2026-04-24 13:31 | -12.35027 | 141.93800 | 2450 ft | 259 kts | 334° |
| 2026-04-24 13:31 | -12.33434 | 141.92917 | 2446 ft | 262 kts | 335° |
| 2026-04-24 13:31 | -12.31834 | 141.92028 | 2446 ft | 262 kts | 335° |
| 2026-04-24 13:31 | -12.30235 | 141.91130 | 2446 ft | 262 kts | 335° |
| 2026-04-24 13:32 | -12.28639 | 141.90231 | 2445 ft | 261 kts | 334° |
| 2026-04-24 13:32 | -12.27045 | 141.89345 | 2447 ft | 261 kts | 335° |
| 2026-04-24 13:32 | -12.25453 | 141.88460 | 2446 ft | 260 kts | 335° |
| 2026-04-24 13:32 | -12.23867 | 141.87570 | 2446 ft | 260 kts | 335° |
| 2026-04-24 13:33 | -12.22282 | 141.86679 | 2445 ft | 260 kts | 334° |
| 2026-04-24 13:33 | -12.20702 | 141.85795 | 2443 ft | 259 kts | 334° |
| 2026-04-24 13:33 | -12.19118 | 141.84910 | 2442 ft | 259 kts | 334° |
| 2026-04-24 13:33 | -12.17538 | 141.84030 | 2436 ft | 259 kts | 334° |
| 2026-04-24 13:34 | -12.15957 | 141.83148 | 2436 ft | 257 kts | 335° |
| 2026-04-24 13:34 | -12.14395 | 141.82273 | 2444 ft | 257 kts | 334° |
| 2026-04-24 13:34 | -12.12824 | 141.81393 | 2444 ft | 258 kts | 334° |
| 2026-04-24 13:34 | -12.11252 | 141.80521 | 2438 ft | 262 kts | 334° |
| 2026-04-24 13:35 | -12.09652 | 141.79637 | 2435 ft | 262 kts | 335° |
| 2026-04-24 13:35 | -12.08046 | 141.78747 | 2440 ft | 261 kts | 335° |
| 2026-04-24 13:35 | -12.06452 | 141.77855 | 2441 ft | 261 kts | 334° |
| 2026-04-24 13:35 | -12.04834 | 141.77026 | 2439 ft | 257 kts | 343° |
| 2026-04-24 13:36 | -12.03101 | 141.76713 | 2431 ft | 251 kts | 2° |
| 2026-04-24 13:36 | -12.01364 | 141.76708 | 2438 ft | 248 kts | 8° |
| 2026-04-24 13:36 | -11.99741 | 141.77146 | 2437 ft | 238 kts | 33° |
| 2026-04-24 13:36 | -11.98362 | 141.78073 | 2437 ft | 237 kts | 41° |
| 2026-04-24 13:37 | -11.97033 | 141.79067 | 2436 ft | 236 kts | 41° |
| 2026-04-24 13:37 | -11.95722 | 141.80042 | 2438 ft | 236 kts | 40° |
| 2026-04-24 13:37 | -11.94379 | 141.81030 | 2435 ft | 238 kts | 40° |
| 2026-04-24 13:37 | -11.93025 | 141.82004 | 2437 ft | 238 kts | 40° |
| 2026-04-24 13:38 | -11.91661 | 141.82969 | 2435 ft | 239 kts | 40° |
| 2026-04-24 13:38 | -11.90298 | 141.83929 | 2439 ft | 237 kts | 39° |
| 2026-04-24 13:38 | -11.88941 | 141.84883 | 2439 ft | 237 kts | 40° |
| 2026-04-24 13:38 | -11.87575 | 141.85819 | 2436 ft | 236 kts | 39° |
| 2026-04-24 13:39 | -11.86235 | 141.86753 | 2436 ft | 236 kts | 40° |
| 2026-04-24 13:39 | -11.84878 | 141.87693 | 2432 ft | 236 kts | 39° |
| 2026-04-24 13:39 | -11.83508 | 141.88631 | 2437 ft | 236 kts | 39° |
| 2026-04-24 13:39 | -11.82145 | 141.89571 | 2440 ft | 237 kts | 40° |
| 2026-04-24 13:40 | -11.80771 | 141.90507 | 2438 ft | 238 kts | 39° |
| 2026-04-24 13:40 | -11.79406 | 141.91452 | 2442 ft | 236 kts | 39° |
| 2026-04-24 13:40 | -11.78050 | 141.92400 | 2439 ft | 237 kts | 40° |
| 2026-04-24 13:40 | -11.76677 | 141.93344 | 2440 ft | 238 kts | 39° |
| 2026-04-24 13:41 | -11.75303 | 141.94289 | 2439 ft | 237 kts | 40° |
| 2026-04-24 13:41 | -11.74210 | 141.95044 | 2439 ft | 237 kts | 40° |